createdAt,value
2018-02-09T10:51:22.085Z,42.70
2018-02-09T10:53:51.294Z,49.80
2018-02-09T10:56:18.851Z,51.03
2018-02-09T10:58:46.507Z,69.63
2018-02-09T11:01:21.112Z,50.60
2018-02-09T11:03:48.656Z,48.93
2018-02-09T11:06:16.181Z,47.37
2018-02-09T11:08:43.731Z,52.53
2018-02-09T11:11:16.814Z,50.53
2018-02-09T11:13:44.351Z,59.50
2018-02-09T11:16:13.182Z,52.37
2018-02-09T11:18:40.747Z,48.63
2018-02-09T11:21:08.268Z,58.60
2018-02-09T11:23:37.185Z,53.33
2018-02-09T11:26:04.723Z,50.90
2018-02-09T11:28:32.270Z,55.10
2018-02-09T11:31:00.560Z,40.77
2018-02-09T11:33:28.114Z,47.10
2018-02-09T11:35:55.640Z,44.43
2018-02-09T11:38:23.199Z,40.67
2018-02-09T11:40:51.507Z,46.63
2018-02-09T11:43:19.075Z,47.47
2018-02-09T11:45:46.681Z,43.43
2018-02-09T11:48:14.820Z,54.63
2018-02-09T11:50:42.371Z,41.20
2018-02-09T11:53:09.901Z,59.93
2018-02-09T11:55:37.478Z,47.67
2018-02-09T11:58:05.055Z,51.27
2018-02-09T12:00:32.634Z,48.10
2018-02-09T12:03:00.160Z,45.60
2018-02-09T12:05:27.702Z,40.57
2018-02-09T12:07:55.237Z,43.13
2018-02-09T12:10:23.563Z,38.43
2018-02-09T12:12:51.884Z,54.00
2018-02-09T12:15:20.733Z,44.40
2018-02-09T12:17:48.283Z,46.00
2018-02-09T12:20:16.619Z,42.63
2018-02-09T12:22:45.027Z,52.83
2018-02-09T12:25:12.557Z,49.00
2018-02-09T12:27:40.209Z,58.50
2018-02-09T12:30:08.519Z,41.77
2018-02-09T12:32:36.088Z,61.80
2018-02-09T12:35:03.642Z,43.20
2018-02-09T12:37:31.204Z,50.07
2018-02-09T12:39:58.772Z,40.90
2018-02-09T12:42:26.273Z,47.33
2018-02-09T12:44:54.648Z,48.47
2018-02-09T12:47:22.987Z,44.57
2018-02-09T12:49:50.563Z,53.37
2018-02-09T12:52:18.150Z,49.17
2018-02-09T12:54:46.415Z,47.83
2018-02-09T12:57:14.057Z,41.87
2018-02-09T12:59:42.987Z,46.77
2018-02-09T13:02:10.591Z,49.23
2018-02-09T13:04:38.148Z,43.17
2018-02-09T13:07:06.262Z,46.90
2018-02-09T13:09:33.893Z,49.33
2018-02-09T13:12:01.439Z,41.50
2018-02-09T13:14:44.351Z,47.17
2018-02-09T13:17:11.909Z,46.70
2018-02-09T13:19:39.455Z,34.43
2018-02-09T13:22:07.841Z,37.57
2018-02-09T13:24:35.444Z,36.93
2018-02-09T13:27:03.001Z,37.97
2018-02-09T13:29:31.320Z,40.50
2018-02-09T13:32:07.461Z,39.60
2018-02-09T13:34:43.649Z,39.20
2018-02-09T13:40:12.972Z,35.40
2018-02-09T13:42:41.466Z,47.43
2018-02-09T13:45:09.138Z,37.70
2018-02-09T13:47:41.284Z,31.10
2018-02-09T13:50:12.582Z,36.30
2018-02-09T13:52:45.641Z,40.80
2018-02-09T13:55:14.550Z,40.17
2018-02-09T13:57:44.061Z,36.37
2018-02-09T14:00:11.679Z,43.57
2018-02-09T14:02:39.263Z,35.63
2018-02-09T14:05:26.557Z,35.90
2018-02-09T14:08:00.945Z,34.07
2018-02-09T14:10:34.578Z,33.13
2018-02-09T14:13:03.402Z,33.13
2018-02-09T14:15:32.198Z,38.07
2018-02-09T14:18:04.891Z,27.70
2018-02-09T14:20:32.474Z,36.63
2018-02-09T14:23:27.817Z,36.30
2018-02-09T14:25:59.720Z,32.97
2018-02-09T14:28:27.305Z,33.83
2018-02-09T14:31:00.632Z,31.63
2018-02-09T14:33:28.522Z,28.37
2018-02-09T14:36:02.039Z,31.63
2018-02-09T14:38:30.562Z,28.30
2018-02-09T14:40:58.984Z,28.07
2018-02-09T14:43:27.091Z,34.23
2018-02-09T14:45:59.523Z,34.33
2018-02-09T14:48:39.289Z,27.73
2018-02-09T14:51:06.946Z,27.17
2018-02-09T14:53:34.871Z,30.10
2018-02-09T14:56:03.703Z,27.87
2018-02-09T14:58:34.072Z,33.67
2018-02-09T15:01:01.630Z,43.63
2018-02-09T15:03:29.224Z,28.03
2018-02-09T15:05:57.354Z,40.97
2018-02-09T15:08:26.800Z,26.13
2018-02-09T15:10:55.816Z,33.33
2018-02-09T15:13:30.360Z,33.80
2018-02-09T15:15:57.958Z,35.33
2018-02-09T15:18:26.740Z,28.70
2018-02-09T15:21:02.646Z,33.60
2018-02-09T15:23:31.030Z,32.03
2018-02-09T15:26:04.480Z,32.63
2018-02-09T15:28:32.057Z,26.33
2018-02-09T15:31:08.386Z,29.47
2018-02-09T15:33:44.126Z,27.17
2018-02-09T15:36:18.776Z,29.80
2018-02-09T15:39:03.247Z,29.27
2018-02-09T15:41:30.866Z,37.80
2018-02-09T15:44:06.554Z,31.33
2018-02-09T15:46:34.219Z,30.63
2018-02-09T15:49:02.896Z,29.47
2018-02-09T15:51:31.328Z,28.80
2018-02-09T15:53:59.743Z,34.33
2018-02-09T15:56:35.576Z,31.73
2018-02-09T15:59:03.218Z,22.40
2018-02-09T16:01:31.114Z,25.17
2018-02-09T16:03:58.729Z,26.10
2018-02-09T16:06:27.571Z,36.60
2018-02-09T16:08:56.817Z,27.37
2018-02-09T16:11:25.130Z,20.80
2018-02-09T16:14:13.147Z,22.00
2018-02-09T16:16:40.703Z,18.23
2018-02-09T16:19:10.029Z,17.03
2018-02-09T16:21:44.480Z,19.50
2018-02-09T16:24:12.427Z,22.87
2018-02-09T16:26:44.660Z,20.97
2018-02-09T16:29:13.644Z,23.13
2018-02-09T16:31:46.836Z,29.70
2018-02-09T16:34:39.925Z,30.07
2018-02-09T16:37:14.842Z,26.80
2018-02-09T16:39:48.341Z,20.60
2018-02-09T16:42:17.008Z,25.33
2018-02-09T16:44:52.090Z,20.00
2018-02-09T16:47:20.475Z,20.53
2018-02-09T16:52:54.304Z,19.20
2018-02-09T16:55:26.059Z,22.90
2018-02-09T16:57:53.645Z,21.87
2018-02-09T17:00:21.228Z,23.30
2018-02-09T17:02:50.520Z,22.33
2018-02-09T17:05:20.575Z,23.97
2018-02-09T17:07:54.127Z,17.53
2018-02-09T17:10:29.054Z,21.43
2018-02-09T17:12:57.980Z,32.47
2018-02-09T17:15:25.584Z,18.47
2018-02-09T17:17:53.170Z,25.87
2018-02-09T17:20:23.761Z,24.20
2018-02-09T17:22:55.540Z,22.53
2018-02-09T17:25:24.078Z,23.80
2018-02-09T17:27:58.198Z,22.13
2018-02-09T17:30:27.608Z,24.27
2018-02-09T17:32:57.169Z,23.90
2018-02-09T17:35:27.859Z,26.63
2018-02-09T17:38:02.399Z,22.63
2018-02-09T17:40:32.197Z,26.67
2018-02-09T17:43:22.713Z,23.73
2018-02-09T17:45:52.202Z,20.03
2018-02-09T17:48:21.461Z,25.37
2018-02-09T17:50:50.246Z,26.40
2018-02-09T17:53:23.121Z,36.00
2018-02-09T17:55:54.594Z,25.43
2018-02-09T17:58:22.167Z,25.57
2018-02-09T18:00:52.441Z,22.77
2018-02-09T18:03:23.923Z,26.27
2018-02-09T18:05:56.369Z,27.80
2018-02-09T18:08:23.961Z,23.80
2018-02-09T18:10:55.635Z,28.47
2018-02-09T18:13:28.652Z,23.60
2018-02-09T18:15:58.720Z,19.00
2018-02-09T18:18:28.353Z,29.50
2018-02-09T18:20:55.932Z,24.63
2018-02-09T18:23:26.675Z,33.13
2018-02-09T18:26:02.973Z,28.97
2018-02-09T18:28:30.678Z,24.40
2018-02-09T18:31:01.648Z,29.00
2018-02-09T18:33:29.948Z,29.17
2018-02-09T18:36:04.975Z,26.83
2018-02-09T18:38:33.075Z,30.53
2018-02-09T18:41:02.345Z,27.27
2018-02-09T18:43:29.972Z,25.93
2018-02-09T18:48:34.112Z,26.90
2018-02-09T18:51:01.752Z,25.33
2018-02-09T18:53:30.748Z,29.60
2018-02-09T18:56:02.800Z,26.33
2018-02-09T18:58:35.298Z,31.43
2018-02-09T19:01:03.834Z,29.53
2018-02-09T19:03:32.067Z,31.10
2018-02-09T19:06:02.033Z,21.83
2018-02-09T19:08:29.615Z,29.10
2018-02-09T19:10:57.970Z,30.67
2018-02-09T19:13:26.949Z,31.20
2018-02-09T19:15:57.098Z,32.80
2018-02-09T19:21:01.492Z,30.07
2018-02-09T19:23:29.969Z,33.43
2018-02-09T19:25:57.796Z,24.20
2018-02-09T19:28:25.591Z,29.87
2018-02-09T19:30:53.146Z,29.30
2018-02-09T19:33:21.100Z,36.37
2018-02-09T19:35:49.039Z,33.77
2018-02-09T19:38:16.686Z,28.30
2018-02-09T19:40:45.140Z,30.30
2018-02-09T19:43:13.692Z,31.17
2018-02-09T19:45:42.172Z,29.73
2018-02-09T19:48:10.109Z,27.30
2018-02-09T19:50:37.711Z,30.10
2018-02-09T19:53:05.766Z,31.97
2018-02-09T19:55:33.679Z,32.53
2018-02-09T19:58:02.034Z,37.10
2018-02-09T20:00:31.008Z,34.40
2018-02-09T20:02:59.015Z,28.13
2018-02-09T20:05:26.582Z,30.33
2018-02-09T20:07:55.614Z,30.90
2018-02-09T20:10:24.218Z,37.03
2018-02-09T20:12:52.520Z,31.57
2018-02-09T20:15:22.928Z,35.13
2018-02-09T20:17:50.558Z,33.60
2018-02-09T20:20:18.175Z,26.13
2018-02-09T20:22:46.783Z,38.73
2018-02-09T20:25:15.557Z,30.40
2018-02-09T20:27:45.142Z,32.70
2018-02-09T20:30:14.171Z,33.13
2018-02-09T20:32:41.990Z,34.17
2018-02-09T20:35:09.704Z,38.93
2018-02-09T20:37:37.298Z,26.37
2018-02-09T20:40:05.843Z,34.33
2018-02-09T20:42:34.412Z,33.60
2018-02-09T20:45:02.075Z,30.30
2018-02-09T20:47:29.782Z,30.23
2018-02-09T20:49:57.425Z,27.87
2018-02-09T20:52:25.253Z,28.30
2018-02-09T20:54:53.097Z,31.33
2018-02-09T20:57:22.484Z,36.43
2018-02-09T20:59:50.108Z,31.07
2018-02-09T21:02:17.900Z,24.70
2018-02-09T21:04:46.120Z,28.37
2018-02-09T21:07:13.682Z,32.50
2018-02-09T21:09:41.217Z,30.67
2018-02-09T21:12:10.055Z,31.97
2018-02-09T21:14:37.735Z,28.70
2018-02-09T21:17:05.308Z,27.33
2018-02-09T21:19:33.742Z,30.20
2018-02-09T21:22:01.908Z,27.27
2018-02-09T21:24:29.491Z,27.23
2018-02-09T21:26:57.271Z,23.93
2018-02-09T21:29:25.790Z,27.00
2018-02-09T21:31:54.247Z,27.47
2018-02-09T21:34:21.836Z,30.23
2018-02-09T21:36:49.410Z,26.53
2018-02-09T21:39:16.983Z,29.30
2018-02-09T21:44:18.553Z,30.53
2018-02-09T21:46:47.135Z,28.27
2018-02-09T21:49:15.022Z,31.40
2018-02-09T21:51:42.649Z,25.23
2018-02-09T21:54:12.357Z,31.07
2018-02-09T21:56:40.865Z,23.40
2018-02-09T21:59:09.363Z,29.57
2018-02-09T22:01:37.003Z,25.20
2018-02-09T22:04:05.018Z,27.10
2018-02-09T22:06:33.402Z,33.70
2018-02-09T22:09:00.967Z,29.87
2018-02-09T22:11:28.788Z,31.97
2018-02-09T22:13:56.348Z,29.40
2018-02-09T22:16:23.962Z,27.33
2018-02-09T22:18:51.604Z,27.77
2018-02-09T22:21:21.868Z,34.10
2018-02-09T22:23:51.224Z,26.17
2018-02-09T22:26:19.198Z,31.07
2018-02-09T22:28:46.789Z,29.80
2018-02-09T22:31:14.910Z,28.87
2018-02-09T22:33:44.456Z,30.63
2018-02-09T22:36:13.669Z,27.73
2018-02-09T22:38:41.308Z,27.27
2018-02-09T22:41:17.643Z,28.97
2018-02-09T22:43:45.900Z,28.90
2018-02-09T22:46:36.630Z,33.53
2018-02-09T22:49:04.245Z,33.37
2018-02-09T22:51:34.287Z,30.50
2018-02-09T22:54:09.722Z,31.13
2018-02-09T22:56:38.322Z,30.93
2018-02-09T22:59:06.859Z,29.57
2018-02-09T23:01:34.475Z,24.97
2018-02-09T23:04:02.175Z,30.57
2018-02-09T23:06:30.596Z,26.73
2018-02-09T23:08:58.217Z,30.20
2018-02-09T23:11:25.779Z,31.90
2018-02-09T23:14:00.270Z,33.30
2018-02-09T23:16:37.972Z,35.77
2018-02-09T23:19:05.603Z,33.03
2018-02-09T23:21:33.551Z,32.60
2018-02-09T23:24:01.120Z,30.53
2018-02-09T23:26:31.998Z,35.03
2018-02-09T23:29:00.404Z,41.20
2018-02-09T23:31:28.809Z,31.83
2018-02-09T23:33:56.455Z,30.00
2018-02-09T23:36:24.068Z,32.07
2018-02-09T23:38:52.668Z,35.63
2018-02-09T23:41:23.788Z,39.40
2018-02-09T23:43:56.049Z,34.17
2018-02-09T23:46:30.365Z,45.07
2018-02-09T23:49:03.839Z,41.43
2018-02-09T23:51:50.582Z,31.77
2018-02-09T23:54:21.638Z,40.03
2018-02-09T23:56:55.555Z,35.37
2018-02-09T23:59:23.553Z,32.70
